Time;durP1;ratioP1;P1;durP2;ratioP2;P2;SDS_P1;SDS_P2;PMS_P1;PMS_P2;Temp;Humidity;BMP_temperature;BMP_pressure;BME280_temperature;BME280_humidity;BME280_pressure;Samples;Min_cycle;Max_cycle;Signal;HPM_P1;HPM_P2
2021/08/29 00:01:03;;;;;;;1.30;1.07;;;14.40;98.00;;;;;;5051359;28;20461;-73
2021/08/29 00:03:31;;;;;;;1.20;1.10;;;14.40;98.00;;;;;;5051503;28;20499;-73
2021/08/29 00:05:59;;;;;;;1.87;1.20;;;14.50;98.00;;;;;;5050519;28;20456;-73
2021/08/29 00:08:26;;;;;;;2.03;1.20;;;14.50;98.00;;;;;;5051767;28;20815;-73
2021/08/29 00:10:54;;;;;;;1.20;0.97;;;14.40;98.00;;;;;;5051410;28;20489;-74
2021/08/29 00:13:21;;;;;;;1.20;1.10;;;14.40;98.00;;;;;;5051545;28;20879;-74
2021/08/29 00:15:48;;;;;;;1.43;1.20;;;14.40;98.00;;;;;;5051237;28;21010;-72
2021/08/29 00:18:15;;;;;;;1.77;1.40;;;14.50;98.00;;;;;;5051353;28;20534;-74
2021/08/29 00:20:44;;;;;;;1.20;1.10;;;14.60;98.00;;;;;;5051373;28;20850;-73
2021/08/29 00:23:11;;;;;;;1.77;1.47;;;14.60;98.00;;;;;;5051455;28;20466;-73
2021/08/29 00:25:38;;;;;;;1.20;1.00;;;14.60;98.00;;;;;;5049979;28;20558;-73
2021/08/29 00:28:07;;;;;;;1.27;1.07;;;14.50;98.00;;;;;;5051352;28;20488;-74
2021/08/29 00:30:38;;;;;;;1.20;1.00;;;14.60;98.00;;;;;;5051312;28;20450;-74
2021/08/29 00:33:05;;;;;;;1.20;1.00;;;14.70;98.00;;;;;;5052945;28;20471;-74
2021/08/29 00:35:33;;;;;;;1.90;1.27;;;14.90;98.00;;;;;;5055183;28;20461;-73
2021/08/29 00:38:00;;;;;;;1.70;1.10;;;14.90;98.00;;;;;;5055532;28;20457;-72
2021/08/29 00:40:28;;;;;;;1.40;1.20;;;14.80;98.00;;;;;;5054659;28;20483;-73
2021/08/29 00:42:55;;;;;;;1.20;0.90;;;14.70;98.00;;;;;;5054926;28;20996;-75
2021/08/29 00:45:25;;;;;;;1.20;1.10;;;14.70;98.00;;;;;;5054559;28;20486;-73
2021/08/29 00:47:53;;;;;;;1.97;1.33;;;14.70;98.00;;;;;;5054634;28;20481;-74
2021/08/29 00:50:20;;;;;;;1.20;1.00;;;14.70;98.00;;;;;;5054767;28;20447;-73
2021/08/29 00:52:47;;;;;;;1.40;1.40;;;14.60;98.00;;;;;;5054476;28;20543;-73
2021/08/29 00:55:14;;;;;;;1.20;1.10;;;14.60;98.00;;;;;;5053776;28;20494;-73
2021/08/29 00:57:41;;;;;;;1.20;1.10;;;14.60;98.00;;;;;;5053766;28;20460;-73
2021/08/29 01:00:11;;;;;;;1.20;1.10;;;14.70;98.00;;;;;;5053460;28;20568;-73
2021/08/29 01:02:41;;;;;;;1.20;1.00;;;14.80;98.00;;;;;;5053746;28;20950;-74
2021/08/29 01:05:12;;;;;;;1.47;1.30;;;14.80;98.00;;;;;;5054390;28;20463;-74
2021/08/29 01:07:50;;;;;;;1.20;1.10;;;14.60;98.00;;;;;;5054323;28;20464;-73
2021/08/29 01:10:20;;;;;;;1.97;1.37;;;14.50;98.00;;;;;;5054380;28;20540;-73
2021/08/29 01:12:50;;;;;;;1.50;1.20;;;14.40;98.00;;;;;;5054134;28;20490;-74
2021/08/29 01:15:18;;;;;;;1.40;1.10;;;14.30;98.00;;;;;;5054155;28;20492;-73
2021/08/29 01:17:49;;;;;;;1.20;1.20;;;14.40;98.00;;;;;;5054133;28;20494;-73
2021/08/29 01:20:21;;;;;;;1.20;1.20;;;14.40;98.00;;;;;;5053909;28;20522;-73
2021/08/29 01:22:49;;;;;;;1.20;1.10;;;14.40;98.00;;;;;;5054071;28;20811;-73
2021/08/29 01:25:24;;;;;;;2.13;1.70;;;14.40;98.00;;;;;;5053928;28;20956;-74
2021/08/29 01:27:56;;;;;;;1.30;1.20;;;14.50;98.00;;;;;;5053937;28;20527;-73
2021/08/29 01:30:36;;;;;;;1.20;1.00;;;14.60;98.00;;;;;;5053962;28;20581;-74
2021/08/29 01:33:06;;;;;;;1.30;1.10;;;14.50;98.00;;;;;;5053769;28;20499;-74
2021/08/29 01:35:34;;;;;;;1.20;1.00;;;14.40;98.00;;;;;;5053841;28;20849;-75
2021/08/29 01:38:02;;;;;;;1.60;1.50;;;14.40;98.00;;;;;;5053768;28;20913;-73
2021/08/29 01:40:30;;;;;;;1.20;1.00;;;14.40;98.00;;;;;;5053529;28;20618;-74
2021/08/29 01:42:59;;;;;;;1.43;1.40;;;14.40;98.00;;;;;;5053775;28;20514;-73
2021/08/29 01:45:28;;;;;;;2.13;1.20;;;14.50;98.00;;;;;;5053008;28;20532;-73
2021/08/29 01:47:56;;;;;;;1.20;1.10;;;14.50;98.00;;;;;;5053763;28;21154;-73
2021/08/29 01:50:24;;;;;;;1.70;1.30;;;14.60;98.00;;;;;;5053720;28;20800;-74
2021/08/29 01:52:51;;;;;;;1.40;1.20;;;14.60;98.00;;;;;;5053587;28;20985;-73
2021/08/29 01:55:18;;;;;;;1.40;1.20;;;14.60;98.00;;;;;;5053536;28;20803;-73
2021/08/29 01:57:45;;;;;;;1.20;1.10;;;14.70;98.00;;;;;;5053969;28;20548;-73
2021/08/29 02:00:12;;;;;;;1.30;1.20;;;14.60;98.00;;;;;;5053389;28;20523;-73
2021/08/29 02:02:43;;;;;;;1.90;1.13;;;14.60;98.00;;;;;;5053159;28;20954;-73
2021/08/29 02:05:11;;;;;;;1.63;1.33;;;14.60;98.00;;;;;;5053354;28;20535;-74
2021/08/29 02:07:47;;;;;;;1.23;1.20;;;14.60;98.00;;;;;;5053071;28;20457;-73
2021/08/29 02:10:17;;;;;;;1.20;1.10;;;14.50;98.00;;;;;;5053044;28;20484;-74
2021/08/29 02:12:48;;;;;;;1.30;1.10;;;14.60;98.00;;;;;;5053027;28;20492;-73
2021/08/29 02:15:18;;;;;;;1.30;1.20;;;14.50;98.00;;;;;;5052903;28;20452;-73
2021/08/29 02:17:49;;;;;;;1.87;1.20;;;14.50;98.00;;;;;;5052878;28;20455;-73
2021/08/29 02:20:20;;;;;;;1.20;1.10;;;14.50;98.00;;;;;;5052948;28;20902;-73
2021/08/29 02:22:47;;;;;;;1.20;1.03;;;14.60;98.00;;;;;;5052663;28;20518;-73
2021/08/29 02:25:14;;;;;;;1.20;1.07;;;14.60;98.00;;;;;;5051390;28;20509;-73
2021/08/29 02:27:42;;;;;;;1.30;1.30;;;14.50;98.00;;;;;;5052806;28;20543;-73
2021/08/29 02:30:11;;;;;;;1.33;1.20;;;14.50;98.00;;;;;;5052899;28;20456;-73
2021/08/29 02:32:39;;;;;;;1.37;1.10;;;14.50;98.00;;;;;;5052445;28;20545;-74
2021/08/29 02:35:08;;;;;;;1.40;1.10;;;14.40;98.00;;;;;;5052669;28;20496;-73
2021/08/29 02:37:38;;;;;;;2.53;1.33;;;14.40;98.00;;;;;;5052637;28;20488;-72
2021/08/29 02:40:08;;;;;;;2.47;1.33;;;14.40;98.00;;;;;;5052265;28;20485;-73
2021/08/29 02:42:35;;;;;;;1.20;1.00;;;14.40;98.00;;;;;;5052809;28;20454;-73
2021/08/29 02:45:05;;;;;;;2.73;1.57;;;14.50;98.00;;;;;;5052427;28;20588;-74
2021/08/29 02:47:32;;;;;;;1.40;1.20;;;14.50;98.00;;;;;;5052564;28;20493;-74
2021/08/29 02:50:00;;;;;;;1.93;1.30;;;14.50;98.00;;;;;;5052257;28;20464;-73
2021/08/29 02:52:29;;;;;;;1.63;1.40;;;14.50;98.00;;;;;;5052372;28;20451;-73
2021/08/29 02:54:59;;;;;;;1.40;1.17;;;14.60;98.00;;;;;;5052280;28;20555;-74
2021/08/29 02:57:33;;;;;;;1.60;1.30;;;14.50;98.00;;;;;;5051369;28;20901;-73
2021/08/29 03:00:00;;;;;;;1.20;1.10;;;14.50;98.00;;;;;;5052270;28;20522;-73
2021/08/29 03:02:27;;;;;;;1.20;1.00;;;14.50;98.00;;;;;;5052259;28;20464;-73
2021/08/29 03:04:54;;;;;;;1.20;1.00;;;14.50;98.00;;;;;;5052179;28;20821;-73
2021/08/29 03:07:22;;;;;;;1.50;1.20;;;14.60;98.00;;;;;;5052081;28;20513;-74
2021/08/29 03:09:51;;;;;;;1.20;1.10;;;14.60;98.00;;;;;;5052264;28;20492;-73
2021/08/29 03:12:18;;;;;;;1.20;1.00;;;14.60;98.00;;;;;;5052189;28;20989;-73
2021/08/29 03:14:45;;;;;;;2.53;1.23;;;14.60;98.00;;;;;;5051923;28;20555;-73
2021/08/29 03:17:13;;;;;;;1.40;1.10;;;14.60;98.00;;;;;;5052261;28;20500;-74
2021/08/29 03:19:40;;;;;;;1.57;1.50;;;14.50;98.00;;;;;;5052083;28;20574;-73
2021/08/29 03:22:08;;;;;;;1.60;1.23;;;14.50;98.00;;;;;;5052062;28;20499;-73
2021/08/29 03:24:35;;;;;;;1.20;1.10;;;14.50;98.00;;;;;;5052031;28;21156;-73
2021/08/29 03:27:05;;;;;;;1.63;1.40;;;14.50;98.00;;;;;;5051719;28;20465;-74
2021/08/29 03:29:32;;;;;;;1.20;1.20;;;14.40;98.00;;;;;;5051806;28;20536;-74
2021/08/29 03:32:00;;;;;;;1.37;1.13;;;14.50;98.00;;;;;;5051550;28;20503;-73
2021/08/29 03:34:27;;;;;;;1.30;1.20;;;14.50;98.00;;;;;;5051591;28;20448;-74
2021/08/29 03:36:55;;;;;;;1.93;1.33;;;14.60;98.00;;;;;;5051374;28;21009;-74
2021/08/29 03:39:25;;;;;;;1.40;1.10;;;14.50;98.00;;;;;;5051524;28;20495;-73
2021/08/29 03:41:56;;;;;;;1.20;1.10;;;14.50;98.00;;;;;;5051633;28;20876;-74
2021/08/29 03:44:27;;;;;;;1.20;1.10;;;14.60;98.00;;;;;;5051374;28;20487;-73
2021/08/29 03:46:55;;;;;;;1.57;1.27;;;14.50;98.00;;;;;;5051563;28;20507;-74
2021/08/29 03:49:24;;;;;;;1.47;1.37;;;14.50;98.00;;;;;;5051737;28;20522;-73
2021/08/29 03:51:51;;;;;;;1.20;1.10;;;14.50;98.00;;;;;;5051497;28;20479;-73
2021/08/29 03:54:19;;;;;;;1.70;1.13;;;14.50;98.00;;;;;;5051481;28;20457;-73
2021/08/29 03:56:46;;;;;;;2.13;1.40;;;14.50;98.00;;;;;;5051562;28;20971;-73
2021/08/29 03:59:14;;;;;;;1.97;1.20;;;14.60;98.00;;;;;;5051467;28;20503;-74
2021/08/29 04:01:43;;;;;;;1.20;1.00;;;14.50;98.00;;;;;;5051115;28;20545;-74
2021/08/29 04:04:10;;;;;;;1.20;1.00;;;14.40;98.00;;;;;;5051337;28;20547;-73
2021/08/29 04:06:38;;;;;;;1.93;1.30;;;14.40;98.00;;;;;;5051391;28;20534;-73
2021/08/29 04:09:07;;;;;;;1.30;1.10;;;14.50;98.00;;;;;;5054881;28;20564;-74
2021/08/29 04:11:36;;;;;;;1.30;1.10;;;14.50;98.00;;;;;;5055335;28;20455;-73
2021/08/29 04:14:03;;;;;;;1.20;1.10;;;14.40;98.00;;;;;;5054117;28;20461;-73
2021/08/29 04:16:31;;;;;;;1.20;1.00;;;14.40;98.00;;;;;;5054030;28;20491;-74
2021/08/29 04:19:00;;;;;;;1.20;1.20;;;14.40;98.00;;;;;;5055177;28;20457;-73
2021/08/29 04:21:28;;;;;;;1.40;1.10;;;14.50;98.00;;;;;;5055218;28;21013;-74
2021/08/29 04:23:56;;;;;;;2.50;1.50;;;14.50;98.00;;;;;;5055197;28;20483;-73
2021/08/29 04:26:24;;;;;;;1.73;1.33;;;14.50;98.00;;;;;;5055198;28;20508;-73
2021/08/29 04:28:52;;;;;;;1.30;1.23;;;14.40;98.00;;;;;;5055123;28;20465;-73
2021/08/29 04:31:25;;;;;;;1.30;1.10;;;14.40;98.00;;;;;;5055034;28;20452;-74
2021/08/29 04:33:53;;;;;;;1.50;1.13;;;14.40;98.00;;;;;;5055106;28;20461;-74
2021/08/29 04:36:22;;;;;;;1.40;1.30;;;14.50;98.00;;;;;;5055301;28;20500;-74
2021/08/29 04:38:49;;;;;;;1.60;1.50;;;14.50;98.00;;;;;;5055182;28;20500;-74
2021/08/29 04:41:16;;;;;;;1.60;1.30;;;14.50;98.00;;;;;;5055016;28;20485;-73
2021/08/29 04:43:44;;;;;;;1.30;1.10;;;14.50;98.00;;;;;;5054842;28;20458;-73
2021/08/29 04:46:14;;;;;;;1.80;1.20;;;14.60;98.00;;;;;;5052899;28;20519;-73
2021/08/29 04:48:41;;;;;;;1.20;1.03;;;14.60;98.00;;;;;;5054735;28;21018;-74
2021/08/29 04:51:08;;;;;;;1.67;1.20;;;14.60;98.00;;;;;;5053576;28;20483;-73
2021/08/29 04:53:37;;;;;;;1.20;1.00;;;14.70;98.00;;;;;;5054709;28;20553;-74
2021/08/29 04:56:04;;;;;;;1.53;1.10;;;14.60;98.00;;;;;;5054555;28;20483;-73
2021/08/29 04:58:31;;;;;;;1.20;1.00;;;14.60;98.00;;;;;;5054399;28;20465;-74
2021/08/29 05:01:00;;;;;;;1.30;1.13;;;14.70;98.00;;;;;;5054353;28;20607;-73
2021/08/29 05:03:27;;;;;;;1.20;1.00;;;14.70;98.00;;;;;;5054378;28;20476;-73
2021/08/29 05:05:54;;;;;;;1.23;1.07;;;14.70;98.00;;;;;;5054088;28;20492;-73
2021/08/29 05:08:21;;;;;;;1.20;1.10;;;14.70;98.00;;;;;;5054271;28;20499;-74
2021/08/29 05:10:51;;;;;;;1.47;1.03;;;14.50;98.00;;;;;;5054107;28;20538;-74
2021/08/29 05:13:18;;;;;;;1.20;1.20;;;14.50;98.00;;;;;;5052947;28;20966;-74
2021/08/29 05:15:45;;;;;;;1.20;1.13;;;14.40;98.00;;;;;;5054071;28;21019;-73
2021/08/29 05:18:12;;;;;;;1.20;1.00;;;14.30;98.00;;;;;;5054164;28;20891;-73
2021/08/29 05:20:39;;;;;;;1.20;1.00;;;14.30;98.00;;;;;;5052882;28;20515;-73
2021/08/29 05:23:06;;;;;;;1.40;1.10;;;14.40;98.00;;;;;;5054006;28;20564;-73
2021/08/29 05:25:33;;;;;;;1.90;0.97;;;14.40;98.00;;;;;;5053928;28;20459;-73
2021/08/29 05:28:01;;;;;;;3.90;1.13;;;14.40;98.00;;;;;;5053888;28;20503;-75
2021/08/29 05:30:28;;;;;;;1.20;1.10;;;14.40;98.00;;;;;;5053774;28;20458;-73
2021/08/29 05:32:56;;;;;;;1.30;1.20;;;14.40;98.00;;;;;;5053904;28;20961;-74
2021/08/29 05:35:23;;;;;;;1.20;0.90;;;14.30;98.00;;;;;;5052485;28;20461;-73
2021/08/29 05:37:50;;;;;;;1.90;1.20;;;14.30;98.00;;;;;;5053782;28;20498;-73
2021/08/29 05:40:17;;;;;;;1.20;1.10;;;14.20;98.00;;;;;;5053445;28;20572;-73
2021/08/29 05:42:43;;;;;;;1.30;1.30;;;14.20;98.00;;;;;;5053974;28;20622;-74
2021/08/29 05:45:12;;;;;;;1.20;1.10;;;14.30;98.00;;;;;;5053832;28;20949;-73
2021/08/29 05:47:39;;;;;;;1.20;1.10;;;14.30;98.00;;;;;;5053741;28;20496;-73
2021/08/29 05:50:07;;;;;;;1.30;1.20;;;14.40;98.00;;;;;;5053720;28;20497;-73
2021/08/29 05:52:34;;;;;;;1.20;1.00;;;14.40;98.00;;;;;;5053811;28;20489;-73
2021/08/29 05:55:01;;;;;;;1.63;1.23;;;14.30;98.00;;;;;;5053649;28;20609;-73
2021/08/29 05:57:28;;;;;;;1.20;1.00;;;14.40;98.00;;;;;;5053599;28;20952;-73
2021/08/29 05:59:55;;;;;;;1.80;1.30;;;14.30;98.00;;;;;;5053698;28;20538;-74
2021/08/29 06:02:23;;;;;;;1.47;1.20;;;14.20;98.00;;;;;;5053443;28;20879;-74
2021/08/29 06:04:51;;;;;;;1.53;1.30;;;14.20;98.00;;;;;;5053254;28;20466;-73
2021/08/29 06:07:18;;;;;;;1.70;1.10;;;14.30;98.00;;;;;;5053507;28;20460;-74
2021/08/29 06:09:45;;;;;;;1.57;1.20;;;14.40;98.00;;;;;;5052940;28;20869;-73
2021/08/29 06:12:12;;;;;;;1.20;1.10;;;14.40;98.00;;;;;;5053170;28;20526;-74
2021/08/29 06:14:39;;;;;;;1.77;1.10;;;14.50;98.00;;;;;;5051826;28;20492;-73
2021/08/29 06:17:06;;;;;;;1.40;1.20;;;14.40;98.00;;;;;;5052926;28;20496;-73
2021/08/29 06:19:34;;;;;;;1.53;1.10;;;14.50;98.00;;;;;;5052814;28;20460;-73
2021/08/29 06:22:01;;;;;;;1.40;1.00;;;14.40;98.00;;;;;;5052937;28;21090;-74
2021/08/29 06:24:28;;;;;;;1.20;1.20;;;14.30;98.00;;;;;;5052771;28;20492;-73
2021/08/29 06:26:55;;;;;;;1.20;1.10;;;14.50;98.00;;;;;;5052733;28;21020;-73
2021/08/29 06:29:22;;;;;;;1.43;1.10;;;14.50;98.00;;;;;;5052748;28;20562;-73
2021/08/29 06:31:49;;;;;;;1.40;1.20;;;14.70;98.00;;;;;;5052677;28;20823;-73
2021/08/29 06:34:16;;;;;;;2.17;1.40;;;14.70;98.00;;;;;;5052596;28;20458;-73
2021/08/29 06:36:46;;;;;;;1.20;1.00;;;14.80;98.00;;;;;;5052550;28;20491;-74
2021/08/29 06:39:13;;;;;;;1.40;1.20;;;14.70;98.00;;;;;;5052527;28;20464;-73
2021/08/29 06:41:40;;;;;;;1.20;1.00;;;14.60;98.00;;;;;;5052353;28;20579;-73
2021/08/29 06:44:07;;;;;;;1.20;1.10;;;14.60;98.00;;;;;;5052472;28;20515;-73
2021/08/29 06:46:34;;;;;;;1.40;1.20;;;14.70;98.00;;;;;;5052384;28;20495;-74
2021/08/29 06:49:01;;;;;;;1.20;1.00;;;14.60;98.00;;;;;;5052596;28;20491;-74
2021/08/29 06:51:28;;;;;;;1.20;1.10;;;14.60;98.00;;;;;;5052360;28;20517;-74
2021/08/29 06:53:57;;;;;;;1.20;1.00;;;14.50;98.00;;;;;;5052345;28;20580;-74
2021/08/29 06:56:23;;;;;;;1.20;1.00;;;14.50;98.00;;;;;;5052370;28;20455;-74
2021/08/29 06:58:51;;;;;;;1.40;1.03;;;14.40;98.00;;;;;;5052389;28;21137;-74
2021/08/29 07:01:18;;;;;;;1.20;0.90;;;14.50;98.00;;;;;;5051816;28;20484;-74
2021/08/29 07:03:45;;;;;;;1.33;1.10;;;14.60;98.00;;;;;;5052319;28;20498;-74
2021/08/29 07:06:12;;;;;;;1.20;1.00;;;14.60;98.00;;;;;;5052320;28;20457;-74
2021/08/29 07:08:39;;;;;;;1.40;1.20;;;14.50;98.00;;;;;;5051025;28;20517;-74
2021/08/29 07:11:08;;;;;;;2.53;1.20;;;14.50;98.00;;;;;;5052206;28;20460;-74
2021/08/29 07:13:35;;;;;;;1.37;1.13;;;14.50;98.00;;;;;;5051010;28;20459;-74
2021/08/29 07:16:02;;;;;;;1.30;1.10;;;14.50;98.00;;;;;;5052014;28;20455;-73
2021/08/29 07:18:29;;;;;;;1.20;1.10;;;14.60;98.00;;;;;;5051969;28;20490;-73
2021/08/29 07:20:56;;;;;;;1.70;1.20;;;14.60;98.00;;;;;;5051985;28;20593;-73
2021/08/29 07:23:23;;;;;;;1.30;1.20;;;14.60;98.00;;;;;;5051165;28;20495;-73
2021/08/29 07:25:50;;;;;;;1.20;1.20;;;14.70;98.00;;;;;;5051966;28;20452;-73
2021/08/29 07:28:19;;;;;;;1.20;1.07;;;14.80;98.00;;;;;;5052003;28;20494;-72
2021/08/29 07:30:46;;;;;;;1.20;1.07;;;14.80;98.00;;;;;;5051106;28;20517;-73
2021/08/29 07:33:13;;;;;;;1.30;1.20;;;15.00;98.00;;;;;;5049916;28;20462;-73
2021/08/29 07:35:41;;;;;;;1.20;0.90;;;14.90;98.00;;;;;;5050980;28;20492;-73
2021/08/29 07:38:08;;;;;;;1.20;1.10;;;14.80;98.00;;;;;;5049787;28;20462;-73
2021/08/29 07:40:35;;;;;;;1.20;0.90;;;14.90;98.00;;;;;;5051460;28;20911;-73
2021/08/29 07:43:01;;;;;;;1.20;1.10;;;14.90;98.00;;;;;;5051143;28;20533;-72
2021/08/29 07:45:30;;;;;;;1.20;1.00;;;14.80;98.00;;;;;;5051386;28;20539;-73
2021/08/29 07:47:57;;;;;;;1.20;1.00;;;14.90;98.00;;;;;;5051486;28;21405;-73
2021/08/29 07:50:25;;;;;;;1.20;1.00;;;14.90;98.00;;;;;;5051442;28;20505;-72
2021/08/29 07:52:52;;;;;;;1.97;1.20;;;15.10;98.00;;;;;;5051542;28;20455;-73
2021/08/29 07:55:19;;;;;;;1.73;1.50;;;15.10;98.00;;;;;;5051405;28;20490;-73
2021/08/29 07:57:46;;;;;;;1.23;1.23;;;15.10;98.00;;;;;;5051530;28;20462;-73
2021/08/29 08:00:14;;;;;;;1.20;1.00;;;15.00;98.00;;;;;;5051226;28;20492;-73
2021/08/29 08:02:52;;;;;;;1.20;1.10;;;15.00;98.00;;;;;;5051588;28;21043;-73
2021/08/29 08:05:19;;;;;;;1.20;1.00;;;15.10;98.00;;;;;;5050609;28;20457;-76
2021/08/29 08:07:47;;;;;;;1.20;1.00;;;15.10;98.00;;;;;;5036169;28;21065;-73
2021/08/29 08:10:14;;;;;;;1.20;1.00;;;15.20;98.00;;;;;;5030796;28;20465;-73
2021/08/29 08:12:40;;;;;;;1.20;1.07;;;15.10;98.00;;;;;;5036052;28;20537;-73
2021/08/29 08:15:09;;;;;;;1.40;1.10;;;15.20;98.00;;;;;;5038934;28;20496;-73
2021/08/29 08:17:36;;;;;;;1.30;1.20;;;15.30;98.00;;;;;;5038575;28;20813;-72
2021/08/29 08:20:07;;;;;;;1.20;1.00;;;15.40;98.00;;;;;;5046670;28;20837;-72
2021/08/29 08:22:35;;;;;;;1.20;0.90;;;15.60;98.00;;;;;;5047474;28;20521;-73
2021/08/29 08:25:02;;;;;;;1.30;1.10;;;15.60;98.00;;;;;;5046749;28;20505;-73
2021/08/29 08:27:28;;;;;;;1.57;1.17;;;15.60;98.00;;;;;;5045982;28;20461;-73
2021/08/29 08:29:55;;;;;;;1.13;1.00;;;15.70;98.00;;;;;;5045762;28;20518;-73
2021/08/29 08:32:24;;;;;;;1.20;1.00;;;15.80;98.00;;;;;;5044278;28;20562;-73
2021/08/29 08:34:51;;;;;;;1.70;1.30;;;15.90;98.00;;;;;;5031003;28;20456;-73
2021/08/29 08:37:20;;;;;;;1.53;1.27;;;15.90;98.00;;;;;;5044553;28;20529;-69
2021/08/29 08:39:47;;;;;;;1.50;1.30;;;15.90;98.00;;;;;;5032286;28;20847;-75
2021/08/29 08:42:15;;;;;;;1.60;1.10;;;15.80;98.00;;;;;;5035343;28;20496;-71
2021/08/29 08:44:44;;;;;;;1.20;1.10;;;15.80;98.00;;;;;;5032014;28;20497;-74
2021/08/29 08:47:16;;;;;;;1.20;1.07;;;15.60;98.00;;;;;;5044687;28;20466;-73
2021/08/29 08:49:44;;;;;;;1.20;1.10;;;15.60;98.00;;;;;;5035259;28;20503;-73
2021/08/29 08:52:17;;;;;;;1.47;1.20;;;15.60;98.00;;;;;;5045487;28;20457;-73
2021/08/29 08:54:48;;;;;;;1.20;1.03;;;15.40;98.00;;;;;;5040715;28;20523;-73
2021/08/29 08:57:18;;;;;;;1.83;1.10;;;15.40;98.00;;;;;;5040411;28;20464;-74
2021/08/29 08:59:45;;;;;;;1.60;1.10;;;15.40;98.00;;;;;;5032703;28;20460;-74
2021/08/29 09:02:13;;;;;;;1.50;1.13;;;15.40;98.00;;;;;;5032047;28;20502;-74
2021/08/29 09:04:40;;;;;;;1.30;1.10;;;15.60;98.00;;;;;;5033473;28;20457;-74
2021/08/29 09:07:11;;;;;;;1.30;1.10;;;15.80;98.00;;;;;;5043950;28;20460;-72
2021/08/29 09:09:38;;;;;;;1.20;1.00;;;15.90;98.00;;;;;;5041629;28;20492;-74
2021/08/29 09:12:10;;;;;;;1.20;1.00;;;15.90;98.00;;;;;;5049532;28;20564;-75
2021/08/29 09:14:42;;;;;;;1.43;1.33;;;16.00;98.00;;;;;;5032440;28;20957;-76
2021/08/29 09:17:28;;;;;;;1.20;1.00;;;16.20;98.00;;;;;;5032801;28;20477;-74
2021/08/29 09:20:16;;;;;;;1.20;1.00;;;16.10;98.00;;;;;;5041570;28;20474;-76
2021/08/29 09:22:43;;;;;;;1.20;1.10;;;16.10;98.00;;;;;;5046548;28;20894;-73
2021/08/29 09:25:13;;;;;;;1.20;1.10;;;16.10;98.00;;;;;;5032676;28;20454;-73
2021/08/29 09:27:44;;;;;;;1.20;1.00;;;16.20;98.00;;;;;;5036208;28;20501;-73
2021/08/29 09:30:12;;;;;;;1.20;1.10;;;16.20;98.00;;;;;;5035476;28;20827;-73
2021/08/29 09:32:51;;;;;;;1.20;1.10;;;16.20;98.00;;;;;;5035978;28;20522;-73
2021/08/29 09:35:19;;;;;;;1.20;1.00;;;16.30;98.00;;;;;;5040783;28;20461;-72
2021/08/29 09:37:46;;;;;;;1.20;1.00;;;16.30;98.00;;;;;;5034871;28;20536;-73
2021/08/29 09:40:15;;;;;;;1.20;1.07;;;16.30;98.00;;;;;;5047661;28;20530;-73
2021/08/29 09:42:45;;;;;;;1.20;1.00;;;16.30;98.00;;;;;;5040478;28;20612;-74
2021/08/29 09:45:21;;;;;;;1.20;1.00;;;16.20;98.00;;;;;;5040788;28;20871;-72
2021/08/29 09:47:48;;;;;;;1.20;1.00;;;16.30;98.00;;;;;;5039433;28;21640;-73
2021/08/29 09:50:22;;;;;;;1.30;1.10;;;16.40;98.00;;;;;;5036152;28;20457;-73
2021/08/29 09:53:04;;;;;;;1.20;1.00;;;16.40;98.00;;;;;;5038268;28;20647;-73
2021/08/29 09:55:34;;;;;;;1.20;1.00;;;16.60;98.00;;;;;;5035640;28;20522;-72
2021/08/29 09:58:20;;;;;;;1.23;1.07;;;16.70;98.00;;;;;;5049257;28;20519;-73
2021/08/29 10:01:03;;;;;;;1.20;1.10;;;16.80;98.00;;;;;;5037081;28;20461;-73
2021/08/29 10:03:30;;;;;;;1.20;1.13;;;16.70;98.00;;;;;;5038756;28;20493;-73
2021/08/29 10:06:15;;;;;;;1.30;1.00;;;16.90;98.00;;;;;;5038758;28;20947;-73
2021/08/29 10:08:43;;;;;;;1.20;1.00;;;17.10;98.00;;;;;;5047634;28;20468;-73
2021/08/29 10:11:11;;;;;;;1.20;1.00;;;17.30;98.00;;;;;;5048100;28;20925;-73
2021/08/29 10:13:41;;;;;;;1.20;1.03;;;17.30;98.00;;;;;;5031883;28;20494;-73
2021/08/29 10:16:09;;;;;;;1.20;1.10;;;17.50;98.00;;;;;;5050254;28;20867;-73
2021/08/29 10:18:38;;;;;;;1.20;1.00;;;17.30;98.00;;;;;;5048016;28;20486;-73
2021/08/29 10:21:06;;;;;;;1.20;1.10;;;17.30;98.00;;;;;;5049227;28;20656;-73
2021/08/29 10:23:33;;;;;;;1.47;1.10;;;17.30;98.00;;;;;;5038461;28;20493;-74
2021/08/29 10:26:01;;;;;;;1.20;1.00;;;17.40;98.00;;;;;;5038984;28;20818;-73
2021/08/29 10:28:30;;;;;;;1.20;1.10;;;17.60;98.00;;;;;;5032193;28;20493;-73
2021/08/29 10:31:02;;;;;;;1.30;1.10;;;17.80;98.00;;;;;;5043295;28;20463;-73
2021/08/29 10:33:32;;;;;;;1.20;1.00;;;17.80;98.00;;;;;;5048716;28;20520;-73
2021/08/29 10:35:59;;;;;;;1.20;1.00;;;17.80;98.00;;;;;;5038253;28;20493;-73
2021/08/29 10:38:27;;;;;;;1.20;1.00;;;17.80;98.00;;;;;;5032352;28;21013;-73
2021/08/29 10:40:54;;;;;;;1.30;1.20;;;17.60;98.00;;;;;;5041423;28;20569;-72
2021/08/29 10:43:22;;;;;;;1.30;1.00;;;17.60;98.00;;;;;;5031587;28;20546;-73
2021/08/29 10:45:49;;;;;;;1.20;1.00;;;17.50;98.00;;;;;;5047257;28;20457;-73
2021/08/29 10:48:19;;;;;;;1.20;1.10;;;17.30;98.00;;;;;;5031396;28;20492;-74
2021/08/29 10:50:48;;;;;;;1.20;1.00;;;17.40;98.00;;;;;;5028823;28;20458;-72
2021/08/29 10:53:29;;;;;;;1.20;1.10;;;17.40;98.00;;;;;;5040369;28;20462;-73
2021/08/29 10:56:29;;;;;;;1.43;1.20;;;17.40;98.00;;;;;;5040388;28;20845;-73
2021/08/29 10:59:21;;;;;;;1.40;1.20;;;17.60;98.00;;;;;;5046454;28;20457;-74
2021/08/29 11:01:49;;;;;;;2.13;1.10;;;17.60;98.00;;;;;;5037733;28;20521;-73
2021/08/29 11:04:50;;;;;;;1.20;1.00;;;17.50;98.00;;;;;;5040138;28;20511;-73
2021/08/29 11:07:40;;;;;;;1.20;1.00;;;17.40;98.00;;;;;;5039196;28;20927;-73
2021/08/29 11:10:08;;;;;;;1.20;1.00;;;17.10;98.00;;;;;;5039098;28;20461;-73
2021/08/29 11:12:37;;;;;;;1.20;1.00;;;17.10;98.00;;;;;;5046631;28;20908;-72
2021/08/29 11:15:07;;;;;;;1.20;1.00;;;17.20;98.00;;;;;;5039492;28;20464;-73
2021/08/29 11:17:35;;;;;;;1.20;1.00;;;17.10;98.00;;;;;;5039241;28;20940;-72
2021/08/29 11:20:19;;;;;;;1.30;1.17;;;17.10;98.00;;;;;;5039012;28;20465;-73
2021/08/29 11:22:47;;;;;;;1.20;1.00;;;17.30;98.00;;;;;;5045922;28;20517;-73
2021/08/29 11:25:23;;;;;;;1.20;1.00;;;17.10;98.00;;;;;;5038143;28;20525;-73
2021/08/29 11:28:04;;;;;;;1.43;1.10;;;17.10;98.00;;;;;;5031775;28;20464;-73
2021/08/29 11:30:45;;;;;;;1.20;1.00;;;17.30;98.00;;;;;;5031639;28;20512;-73
2021/08/29 11:33:14;;;;;;;1.20;1.10;;;17.60;98.00;;;;;;5031549;28;20471;-73
2021/08/29 11:35:50;;;;;;;1.20;1.00;;;17.50;98.00;;;;;;5031658;28;20542;-73
2021/08/29 11:38:31;;;;;;;1.20;1.00;;;17.40;98.00;;;;;;5030546;28;20454;-73
2021/08/29 11:41:11;;;;;;;1.20;1.00;;;17.50;98.00;;;;;;5031726;28;20458;-73
2021/08/29 11:43:40;;;;;;;1.20;1.00;;;17.30;98.00;;;;;;5030380;28;20830;-72
2021/08/29 11:46:12;;;;;;;1.20;1.00;;;17.00;98.00;;;;;;5031551;28;21010;-73
2021/08/29 11:48:49;;;;;;;1.20;1.00;;;16.80;98.00;;;;;;5013931;28;20564;-73
2021/08/29 11:51:25;;;;;;;1.40;1.20;;;16.80;98.00;;;;;;5031780;28;20458;-72
2021/08/29 11:53:53;;;;;;;1.20;1.00;;;16.80;98.00;;;;;;5031575;28;20529;-73
2021/08/29 11:56:27;;;;;;;1.20;1.00;;;16.90;98.00;;;;;;5031464;28;21076;-73
2021/08/29 11:58:56;;;;;;;1.20;1.00;;;16.80;98.00;;;;;;5031641;28;20477;-73
2021/08/29 12:01:23;;;;;;;1.30;1.10;;;16.70;98.00;;;;;;5031462;28;20537;-73
2021/08/29 12:03:55;;;;;;;1.30;1.30;;;16.60;98.00;;;;;;5031413;28;20489;-72
2021/08/29 12:06:31;;;;;;;1.30;1.10;;;16.70;98.00;;;;;;5031489;28;20467;-73
2021/08/29 12:09:14;;;;;;;1.27;1.23;;;16.70;98.00;;;;;;5031359;28;20494;-73
2021/08/29 12:11:42;;;;;;;1.20;1.03;;;16.90;98.00;;;;;;5031346;28;20498;-73
2021/08/29 12:14:17;;;;;;;1.20;1.00;;;16.90;98.00;;;;;;5031400;28;20518;-73
2021/08/29 12:16:50;;;;;;;1.20;1.10;;;16.70;98.00;;;;;;5031319;28;20857;-73
2021/08/29 12:19:22;;;;;;;1.20;0.90;;;16.50;98.00;;;;;;5031517;28;20457;-72
2021/08/29 12:21:52;;;;;;;1.20;1.00;;;16.40;98.00;;;;;;5031331;28;20813;-73
2021/08/29 12:24:25;;;;;;;1.20;0.90;;;16.50;98.00;;;;;;5031379;28;20570;-73
2021/08/29 12:27:00;;;;;;;1.20;1.00;;;16.50;98.00;;;;;;5031248;28;20524;-73
2021/08/29 12:29:28;;;;;;;1.20;1.00;;;16.60;98.00;;;;;;5033880;28;20460;-73
2021/08/29 12:32:07;;;;;;;1.20;1.10;;;16.60;98.00;;;;;;5033915;28;20535;-73
2021/08/29 12:34:36;;;;;;;1.20;1.10;;;16.50;98.00;;;;;;5035351;28;20477;-73
2021/08/29 12:37:06;;;;;;;1.20;1.10;;;16.50;98.00;;;;;;5034057;28;20485;-73
2021/08/29 12:39:33;;;;;;;1.10;1.00;;;16.30;98.00;;;;;;5035271;28;20466;-73
2021/08/29 12:42:20;;;;;;;1.10;1.00;;;16.10;98.00;;;;;;5035192;28;20553;-73
2021/08/29 12:44:49;;;;;;;1.10;1.00;;;16.20;98.00;;;;;;5034666;28;20486;-73
2021/08/29 12:47:17;;;;;;;1.10;1.00;;;16.30;98.00;;;;;;5035161;28;20932;-74
2021/08/29 12:49:46;;;;;;;1.10;1.00;;;16.50;98.00;;;;;;5037135;28;20477;-73
2021/08/29 12:52:18;;;;;;;1.13;1.00;;;16.50;98.00;;;;;;5032633;28;20523;-74
2021/08/29 12:54:46;;;;;;;1.10;0.90;;;16.70;98.00;;;;;;5032408;28;20469;-73
2021/08/29 12:57:13;;;;;;;1.10;1.00;;;16.60;98.00;;;;;;5045518;28;20882;-72
2021/08/29 12:59:42;;;;;;;1.10;1.00;;;16.40;98.00;;;;;;5049644;28;20947;-72